createdAt,value
2022-08-23T00:02:09.132Z,99.90
2022-08-23T00:05:07.412Z,99.90
2022-08-23T00:07:40.618Z,99.90
2022-08-23T00:10:10.844Z,99.90
2022-08-23T00:12:40.030Z,99.90
2022-08-23T00:15:11.119Z,99.90
2022-08-23T00:17:39.648Z,99.90
2022-08-23T00:20:10.359Z,99.90
2022-08-23T00:22:40.072Z,99.90
2022-08-23T00:25:11.029Z,99.90
2022-08-23T00:27:39.102Z,99.90
2022-08-23T00:30:09.839Z,99.90
2022-08-23T00:32:39.469Z,99.90
2022-08-23T00:35:08.909Z,99.90
2022-08-23T00:37:38.268Z,99.90
2022-08-23T00:40:08.449Z,99.90
2022-08-23T00:43:27.258Z,99.90
2022-08-23T00:46:46.095Z,99.90
2022-08-23T00:49:16.463Z,99.90
2022-08-23T00:52:16.380Z,99.90
2022-08-23T00:54:46.088Z,99.90
2022-08-23T00:57:16.527Z,99.90
2022-08-23T00:59:44.253Z,99.90
2022-08-23T01:02:13.701Z,99.90
2022-08-23T01:04:56.309Z,99.90
2022-08-23T01:07:49.486Z,99.90
2022-08-23T01:10:31.411Z,99.90
2022-08-23T01:13:16.700Z,99.90
2022-08-23T01:16:02.836Z,99.90
2022-08-23T01:18:31.658Z,99.90
2022-08-23T01:21:16.926Z,99.90
2022-08-23T01:23:49.241Z,99.90
2022-08-23T01:26:22.049Z,99.90
2022-08-23T01:28:52.876Z,99.90
2022-08-23T01:31:22.522Z,99.90
2022-08-23T01:33:57.555Z,99.90
2022-08-23T01:36:26.014Z,99.90
2022-08-23T01:38:54.874Z,99.90
2022-08-23T01:41:23.845Z,99.90
2022-08-23T01:43:52.101Z,99.90
2022-08-23T01:46:23.329Z,99.90
2022-08-23T01:48:52.112Z,99.90
2022-08-23T01:51:20.747Z,99.90
2022-08-23T01:53:49.408Z,99.90
2022-08-23T01:56:27.602Z,99.90
2022-08-23T01:59:11.612Z,99.90
2022-08-23T02:01:53.694Z,99.90
2022-08-23T02:04:22.722Z,99.90
2022-08-23T02:06:50.360Z,99.90
2022-08-23T02:09:22.797Z,99.90
2022-08-23T02:11:56.116Z,99.90
2022-08-23T02:14:24.600Z,99.90
2022-08-23T02:17:04.513Z,99.90
2022-08-23T02:19:37.873Z,99.90
2022-08-23T02:22:07.285Z,99.90
2022-08-23T02:24:40.721Z,99.90
2022-08-23T02:27:09.327Z,99.90
2022-08-23T02:29:40.360Z,99.90
2022-08-23T02:32:14.671Z,99.90
2022-08-23T02:34:44.294Z,99.90
2022-08-23T02:37:21.252Z,99.90
2022-08-23T02:39:49.039Z,99.90
2022-08-23T02:42:17.948Z,99.90
2022-08-23T02:44:45.567Z,99.90
2022-08-23T02:47:13.230Z,99.90
2022-08-23T02:49:47.532Z,99.90
2022-08-23T02:52:15.447Z,99.90
2022-08-23T02:54:44.497Z,99.90
2022-08-23T02:57:12.929Z,99.90
2022-08-23T02:59:40.550Z,99.90
2022-08-23T03:02:08.984Z,99.90
2022-08-23T03:04:40.901Z,99.90
2022-08-23T03:07:09.594Z,99.90
2022-08-23T03:09:38.665Z,99.90
2022-08-23T03:12:06.537Z,99.90
2022-08-23T03:14:38.375Z,99.90
2022-08-23T03:17:08.126Z,99.90
2022-08-23T03:19:35.900Z,99.90
2022-08-23T03:22:08.172Z,99.90
2022-08-23T03:24:36.400Z,99.90
2022-08-23T03:27:06.858Z,99.90
2022-08-23T03:29:35.030Z,99.90
2022-08-23T03:32:05.328Z,99.90
2022-08-23T03:34:38.341Z,99.90
2022-08-23T03:37:08.757Z,99.90
2022-08-23T03:39:39.001Z,99.90
2022-08-23T03:42:07.131Z,99.90
2022-08-23T03:44:35.658Z,99.90
2022-08-23T03:47:07.024Z,99.90
2022-08-23T03:49:37.826Z,99.90
2022-08-23T03:52:07.209Z,99.90
2022-08-23T03:54:35.938Z,99.90
2022-08-23T03:57:07.277Z,99.90
2022-08-23T03:59:38.792Z,99.90
2022-08-23T04:02:11.199Z,99.90
2022-08-23T04:04:39.869Z,99.90
2022-08-23T04:07:33.767Z,99.90
2022-08-23T04:10:01.603Z,99.90
2022-08-23T04:12:35.932Z,99.90
2022-08-23T04:15:06.133Z,99.90
2022-08-23T04:17:37.891Z,99.90
2022-08-23T04:20:07.474Z,99.90
2022-08-23T04:22:40.929Z,99.90
2022-08-23T04:25:24.569Z,99.90
2022-08-23T04:27:56.839Z,99.90
2022-08-23T04:30:26.036Z,99.90
2022-08-23T04:32:54.062Z,99.90
2022-08-23T04:35:23.845Z,99.90
2022-08-23T04:37:52.905Z,99.90
2022-08-23T04:40:39.609Z,99.90
2022-08-23T04:43:08.779Z,99.90
2022-08-23T04:45:41.296Z,99.90
2022-08-23T04:48:15.483Z,99.90
2022-08-23T04:50:48.531Z,99.90
2022-08-23T04:53:20.275Z,99.90
2022-08-23T04:55:57.315Z,99.90
2022-08-23T04:58:30.509Z,99.90
2022-08-23T05:01:01.110Z,99.90
2022-08-23T05:03:30.172Z,99.90
2022-08-23T05:06:01.586Z,99.90
2022-08-23T05:08:37.009Z,99.90
2022-08-23T05:11:10.360Z,99.90
2022-08-23T05:13:40.663Z,99.90
2022-08-23T05:16:11.149Z,99.90
2022-08-23T05:18:44.357Z,99.90
2022-08-23T05:21:18.145Z,99.90
2022-08-23T05:23:51.081Z,99.90
2022-08-23T05:26:25.478Z,99.90
2022-08-23T05:28:53.271Z,99.90
2022-08-23T05:31:30.690Z,99.90
2022-08-23T05:34:02.841Z,99.90
2022-08-23T05:36:47.434Z,99.90
2022-08-23T05:39:28.721Z,99.90
2022-08-23T05:42:04.474Z,99.90
2022-08-23T05:44:36.426Z,99.90
2022-08-23T05:47:10.731Z,99.90
2022-08-23T05:49:51.174Z,99.90
2022-08-23T05:52:19.533Z,99.90
2022-08-23T05:54:47.219Z,99.90
2022-08-23T05:57:40.763Z,99.90
2022-08-23T06:00:14.483Z,99.90
2022-08-23T06:03:02.583Z,99.90
2022-08-23T06:05:33.384Z,99.90
2022-08-23T06:08:05.278Z,99.90
2022-08-23T06:10:40.502Z,99.90
2022-08-23T06:13:43.931Z,99.90
2022-08-23T06:16:15.013Z,99.90
2022-08-23T06:18:45.507Z,99.90
2022-08-23T06:21:40.008Z,99.90
2022-08-23T06:24:08.403Z,99.90
2022-08-23T06:26:45.894Z,99.90
2022-08-23T06:29:16.440Z,99.90
2022-08-23T06:31:51.635Z,99.90
2022-08-23T06:34:37.741Z,99.90
2022-08-23T06:37:27.999Z,99.90
2022-08-23T06:40:07.078Z,99.90
2022-08-23T06:42:49.645Z,99.90
2022-08-23T06:45:34.942Z,99.90
2022-08-23T06:48:07.454Z,99.90
2022-08-23T06:50:36.702Z,99.90
2022-08-23T06:53:23.900Z,99.90
2022-08-23T06:56:09.862Z,99.90
2022-08-23T06:58:48.769Z,99.90
2022-08-23T07:01:45.536Z,99.90
2022-08-23T07:04:42.001Z,99.90
2022-08-23T07:07:24.077Z,99.90
2022-08-23T07:10:06.151Z,99.90
2022-08-23T07:12:34.298Z,99.90
2022-08-23T07:15:02.088Z,99.90
2022-08-23T07:17:29.602Z,99.90
2022-08-23T07:19:57.298Z,99.90
2022-08-23T07:22:26.061Z,99.90
2022-08-23T07:24:53.799Z,99.90
2022-08-23T07:27:23.377Z,99.90
2022-08-23T07:30:11.758Z,99.90
2022-08-23T07:32:41.412Z,99.90
2022-08-23T07:35:40.332Z,99.90
2022-08-23T07:38:09.263Z,99.90
2022-08-23T07:40:39.027Z,99.90
2022-08-23T07:43:10.099Z,99.90
2022-08-23T07:45:41.072Z,99.90
2022-08-23T07:48:11.834Z,99.90
2022-08-23T07:51:12.603Z,99.90
2022-08-23T07:53:43.053Z,99.90
2022-08-23T07:56:16.979Z,99.90
2022-08-23T07:59:07.906Z,99.90
2022-08-23T08:01:50.289Z,99.90
2022-08-23T08:04:18.500Z,99.90
2022-08-23T08:07:10.407Z,99.90
2022-08-23T08:09:41.227Z,99.90
2022-08-23T08:12:11.171Z,99.90
2022-08-23T08:17:42.447Z,99.90
2022-08-23T08:20:16.203Z,99.90
2022-08-23T08:23:04.468Z,99.90
2022-08-23T08:26:09.874Z,99.90
2022-08-23T08:28:38.815Z,99.90
2022-08-23T08:31:07.923Z,99.90
2022-08-23T08:33:35.902Z,99.90
2022-08-23T08:36:08.858Z,99.90
2022-08-23T08:38:48.486Z,99.90
2022-08-23T08:41:57.443Z,99.90
2022-08-23T08:44:47.382Z,99.90
2022-08-23T08:47:25.418Z,99.90
2022-08-23T08:50:02.802Z,99.90
2022-08-23T08:52:40.702Z,99.90
2022-08-23T08:55:41.041Z,99.90
2022-08-23T08:58:17.262Z,99.90
2022-08-23T09:00:47.360Z,99.90
2022-08-23T09:03:22.212Z,99.90
2022-08-23T09:06:00.103Z,99.90
2022-08-23T09:08:45.855Z,99.90
2022-08-23T09:11:21.148Z,99.90
2022-08-23T09:14:12.951Z,99.90
2022-08-23T09:17:06.584Z,99.90
2022-08-23T09:19:38.362Z,99.90
2022-08-23T09:22:13.536Z,99.90
2022-08-23T09:24:41.837Z,99.90
2022-08-23T09:27:16.027Z,99.90
2022-08-23T09:29:57.163Z,99.50
2022-08-23T09:32:36.420Z,99.40
2022-08-23T09:35:13.679Z,99.50
2022-08-23T09:38:15.200Z,99.60
2022-08-23T09:40:49.919Z,99.30
2022-08-23T09:43:23.636Z,99.50
2022-08-23T09:45:51.508Z,99.60
2022-08-23T09:48:42.692Z,99.60
2022-08-23T09:51:34.971Z,98.80
2022-08-23T09:54:09.898Z,98.90
2022-08-23T09:56:45.299Z,99.00
2022-08-23T09:59:26.953Z,98.80
2022-08-23T10:02:02.420Z,98.10
2022-08-23T10:04:47.593Z,98.20
2022-08-23T10:07:38.313Z,98.10
2022-08-23T10:10:24.460Z,97.40
2022-08-23T10:12:57.045Z,97.90
2022-08-23T10:15:49.609Z,97.30
2022-08-23T10:18:44.566Z,97.20
2022-08-23T10:21:24.245Z,97.50
2022-08-23T10:24:16.704Z,97.10
2022-08-23T10:27:43.261Z,97.10
2022-08-23T10:30:32.592Z,96.60
2022-08-23T10:33:19.771Z,97.20
2022-08-23T10:36:23.486Z,96.90
2022-08-23T10:39:06.277Z,96.20
2022-08-23T10:41:49.689Z,96.60
2022-08-23T10:44:26.026Z,96.40
2022-08-23T10:47:21.999Z,96.40
2022-08-23T10:49:52.520Z,96.30
2022-08-23T10:52:37.330Z,96.30
2022-08-23T10:55:17.678Z,95.60
2022-08-23T10:57:47.980Z,95.40
2022-08-23T11:00:25.694Z,95.50
2022-08-23T11:03:02.480Z,95.40
2022-08-23T11:05:36.600Z,95.00
2022-08-23T11:08:34.389Z,94.70
2022-08-23T11:11:25.827Z,94.50
2022-08-23T11:13:53.936Z,94.70
2022-08-23T11:16:31.184Z,94.60
2022-08-23T11:18:59.908Z,94.50
2022-08-23T11:21:39.967Z,94.50
2022-08-23T11:24:13.198Z,94.60
2022-08-23T11:26:45.251Z,94.40
2022-08-23T11:29:22.418Z,94.00
2022-08-23T11:32:32.978Z,94.10
2022-08-23T11:35:05.742Z,94.20
2022-08-23T11:37:55.385Z,94.00
2022-08-23T11:40:51.149Z,93.60
2022-08-23T11:43:34.593Z,93.50
2022-08-23T11:46:27.119Z,93.30
2022-08-23T11:49:25.334Z,92.90
2022-08-23T11:52:30.739Z,93.10
2022-08-23T11:55:24.260Z,93.10
2022-08-23T11:58:20.312Z,93.10
2022-08-23T12:01:08.006Z,92.80
2022-08-23T12:03:52.220Z,92.70
2022-08-23T12:06:22.719Z,92.90
2022-08-23T12:09:02.001Z,93.00
2022-08-23T12:11:57.641Z,93.10
2022-08-23T12:14:39.411Z,92.90
2022-08-23T12:17:13.393Z,93.10
2022-08-23T12:19:56.799Z,93.40
2022-08-23T12:22:30.990Z,93.60
2022-08-23T12:25:00.673Z,93.70
2022-08-23T12:27:34.193Z,93.90
2022-08-23T12:30:37.775Z,94.10
2022-08-23T12:33:27.164Z,94.30
2022-08-23T12:36:23.981Z,94.50
2022-08-23T12:39:08.750Z,94.80
2022-08-23T12:41:59.043Z,94.70
2022-08-23T12:44:29.494Z,94.60
2022-08-23T12:46:57.760Z,94.40
2022-08-23T12:49:34.480Z,94.40
2022-08-23T12:52:08.696Z,94.50
2022-08-23T12:54:50.263Z,94.50
2022-08-23T12:57:21.374Z,94.40
2022-08-23T13:00:17.120Z,94.50
2022-08-23T13:03:08.638Z,94.70
2022-08-23T13:05:54.733Z,94.90
2022-08-23T13:08:46.276Z,94.90
2022-08-23T13:11:18.006Z,95.10
2022-08-23T13:13:46.021Z,94.80
2022-08-23T13:16:50.798Z,94.80
2022-08-23T13:19:27.922Z,94.30
2022-08-23T13:22:19.793Z,94.00
2022-08-23T13:25:05.973Z,93.90
2022-08-23T13:28:00.746Z,93.70
2022-08-23T13:30:32.339Z,93.80
2022-08-23T13:33:07.626Z,94.10
2022-08-23T13:35:38.342Z,94.00
2022-08-23T13:38:19.801Z,93.50
2022-08-23T13:41:05.142Z,93.70
2022-08-23T13:43:45.174Z,93.40
2022-08-23T13:46:24.041Z,93.30
2022-08-23T13:48:58.629Z,93.50
2022-08-23T13:51:29.179Z,93.60
2022-08-23T13:53:59.553Z,93.60
2022-08-23T13:56:29.916Z,93.50
2022-08-23T13:59:03.588Z,93.20
2022-08-23T14:01:31.720Z,93.20
2022-08-23T14:03:59.503Z,92.90
2022-08-23T14:06:27.124Z,92.80
2022-08-23T14:08:54.704Z,92.60
2022-08-23T14:11:22.373Z,92.90
2022-08-23T14:13:50.705Z,93.10
2022-08-23T14:16:35.005Z,93.50
2022-08-23T14:21:54.321Z,94.00
2022-08-23T14:24:22.216Z,94.70
2022-08-23T14:26:52.424Z,94.20
2022-08-23T14:29:22.771Z,94.10
2022-08-23T14:31:54.007Z,94.00
2022-08-23T14:34:21.916Z,93.80
2022-08-23T14:39:43.901Z,93.30
2022-08-23T14:42:16.402Z,92.80
2022-08-23T14:44:44.151Z,91.80
2022-08-23T14:47:12.605Z,91.70
2022-08-23T14:49:40.389Z,91.60
2022-08-23T14:52:08.310Z,91.60
2022-08-23T14:54:36.306Z,91.40
2022-08-23T14:57:04.063Z,91.10
2022-08-23T14:59:31.621Z,91.00
2022-08-23T15:01:59.642Z,90.70
2022-08-23T15:04:34.128Z,90.60
2022-08-23T15:07:19.924Z,90.50
2022-08-23T15:09:50.376Z,90.10
2022-08-23T15:15:15.875Z,87.30
2022-08-23T15:17:52.390Z,85.80
2022-08-23T15:20:22.925Z,86.90
2022-08-23T15:22:55.681Z,86.50
2022-08-23T15:25:34.358Z,85.50
2022-08-23T15:28:13.027Z,84.40
2022-08-23T15:30:47.762Z,85.40
2022-08-23T15:33:16.813Z,85.40
2022-08-23T15:35:48.749Z,85.20
2022-08-23T15:38:20.357Z,85.10
2022-08-23T15:40:50.328Z,85.10
2022-08-23T15:43:20.679Z,84.90
2022-08-23T15:45:51.304Z,84.90
2022-08-23T15:48:19.078Z,85.10
2022-08-23T15:50:47.339Z,85.50
2022-08-23T15:53:20.238Z,85.90
2022-08-23T15:55:49.726Z,86.70
2022-08-23T15:58:25.243Z,87.00
2022-08-23T16:00:54.889Z,86.20
2022-08-23T16:03:29.527Z,86.90
2022-08-23T16:06:03.077Z,88.10
2022-08-23T16:08:38.836Z,87.70
2022-08-23T16:11:13.484Z,87.60
2022-08-23T16:13:48.199Z,88.00
2022-08-23T16:16:27.790Z,87.90
2022-08-23T16:19:05.561Z,88.10
2022-08-23T16:21:35.350Z,87.90
2022-08-23T16:24:07.998Z,87.50
2022-08-23T16:26:41.983Z,87.20
2022-08-23T16:29:17.763Z,87.10
2022-08-23T16:31:47.554Z,86.80
2022-08-23T16:34:21.950Z,87.20
2022-08-23T16:37:13.200Z,87.90
2022-08-23T16:39:46.995Z,88.80
2022-08-23T16:42:20.196Z,89.00
2022-08-23T16:44:59.157Z,89.20
2022-08-23T16:47:34.242Z,90.10
2022-08-23T16:50:10.804Z,90.10
2022-08-23T16:52:46.785Z,89.70
2022-08-23T16:55:22.533Z,88.10
2022-08-23T16:58:00.963Z,88.90
2022-08-23T17:00:30.289Z,87.20
2022-08-23T17:03:09.797Z,87.00
2022-08-23T17:06:04.370Z,87.80
2022-08-23T17:08:53.143Z,87.70
2022-08-23T17:11:37.888Z,89.30
2022-08-23T17:14:12.312Z,89.90
2022-08-23T17:16:52.470Z,90.20
2022-08-23T17:19:47.363Z,90.40
2022-08-23T17:22:48.625Z,90.90
2022-08-23T17:25:24.157Z,92.10
2022-08-23T17:27:56.339Z,91.50
2022-08-23T17:30:27.907Z,91.30
2022-08-23T17:33:01.856Z,91.40
2022-08-23T17:35:34.024Z,91.20
2022-08-23T17:40:57.738Z,90.60
2022-08-23T17:43:32.463Z,90.50
2022-08-23T17:46:02.567Z,90.40
2022-08-23T17:48:33.796Z,90.20
2022-08-23T17:51:09.724Z,90.30
2022-08-23T17:53:42.758Z,90.30
2022-08-23T17:56:18.300Z,90.80
2022-08-23T17:58:52.071Z,90.90
2022-08-23T18:01:25.595Z,91.30
2022-08-23T18:04:09.205Z,91.60
2022-08-23T18:06:46.650Z,92.10
2022-08-23T18:09:17.625Z,92.40
2022-08-23T18:11:47.517Z,92.70
2022-08-23T18:14:22.168Z,93.00
2022-08-23T18:17:02.171Z,93.00
2022-08-23T18:19:40.406Z,93.20
2022-08-23T18:25:03.781Z,94.00
2022-08-23T18:27:51.450Z,94.10
2022-08-23T18:30:20.311Z,94.30
2022-08-23T18:32:48.748Z,94.40
2022-08-23T18:35:19.041Z,94.60
2022-08-23T18:40:45.202Z,95.00
2022-08-23T18:43:17.206Z,95.40
2022-08-23T18:45:47.656Z,95.90
2022-08-23T18:48:15.663Z,96.10
2022-08-23T18:50:44.261Z,96.30
2022-08-23T18:53:13.134Z,96.40
2022-08-23T18:55:41.845Z,96.70
2022-08-23T18:58:09.796Z,96.80
2022-08-23T19:00:39.030Z,97.00
2022-08-23T19:03:07.680Z,97.00
2022-08-23T19:05:41.623Z,97.10
2022-08-23T19:08:11.531Z,97.30
2022-08-23T19:10:41.246Z,97.50
2022-08-23T19:13:10.145Z,97.50
2022-08-23T19:15:40.638Z,97.70
2022-08-23T19:18:09.440Z,97.80
2022-08-23T19:20:38.100Z,98.00
2022-08-23T19:23:06.550Z,98.40
2022-08-23T19:25:37.088Z,98.80
2022-08-23T19:28:06.282Z,98.80
2022-08-23T19:30:34.444Z,99.20
2022-08-23T19:33:03.666Z,99.50
2022-08-23T19:35:31.613Z,99.50
2022-08-23T19:37:59.459Z,99.90
2022-08-23T19:40:27.771Z,99.90
2022-08-23T19:42:55.765Z,99.90
2022-08-23T19:45:23.487Z,99.90
2022-08-23T19:47:51.230Z,99.90
2022-08-23T19:50:24.220Z,99.90
2022-08-23T19:52:52.841Z,99.90
2022-08-23T19:55:21.569Z,99.90
2022-08-23T19:57:53.148Z,99.90
2022-08-23T20:00:22.998Z,99.90
2022-08-23T20:02:50.694Z,99.90
2022-08-23T20:05:20.598Z,99.90
2022-08-23T20:07:51.112Z,99.90
2022-08-23T20:10:22.169Z,99.90
2022-08-23T20:12:51.207Z,99.90
2022-08-23T20:15:23.024Z,99.90
2022-08-23T20:17:54.935Z,99.90
2022-08-23T20:20:29.920Z,99.90
2022-08-23T20:23:20.931Z,99.90
2022-08-23T20:25:50.410Z,99.90
2022-08-23T20:28:25.762Z,99.90
2022-08-23T20:30:57.114Z,99.90
2022-08-23T20:33:26.942Z,99.90
2022-08-23T20:35:57.848Z,99.90
2022-08-23T20:38:33.942Z,99.90
2022-08-23T20:41:03.319Z,99.90
2022-08-23T20:43:33.350Z,99.90
2022-08-23T20:46:06.518Z,99.90
2022-08-23T20:48:40.892Z,99.90
2022-08-23T20:51:12.366Z,99.90
2022-08-23T20:53:40.103Z,99.90
2022-08-23T20:56:10.045Z,99.90
2022-08-23T20:58:38.988Z,99.90
2022-08-23T21:01:10.199Z,99.90
2022-08-23T21:03:41.370Z,99.90
2022-08-23T21:06:16.610Z,99.90
2022-08-23T21:08:53.981Z,99.90
2022-08-23T21:11:26.108Z,99.90
2022-08-23T21:13:58.537Z,99.90
2022-08-23T21:16:27.148Z,99.90
2022-08-23T21:18:57.533Z,99.90
2022-08-23T21:21:30.963Z,99.90
2022-08-23T21:24:03.842Z,99.90
2022-08-23T21:26:32.229Z,99.90
2022-08-23T21:29:00.579Z,99.90
2022-08-23T21:31:30.201Z,99.90
2022-08-23T21:34:00.865Z,99.90
2022-08-23T21:36:28.940Z,99.90
2022-08-23T21:39:01.533Z,99.90
2022-08-23T21:41:43.897Z,99.90
2022-08-23T21:44:16.837Z,99.90
2022-08-23T21:46:45.357Z,99.90
2022-08-23T21:49:17.258Z,99.90
2022-08-23T21:51:50.671Z,99.90
2022-08-23T21:54:56.342Z,99.90
2022-08-23T21:57:32.536Z,99.90
2022-08-23T22:00:03.941Z,99.90
2022-08-23T22:02:41.837Z,99.90
2022-08-23T22:05:11.841Z,99.90
2022-08-23T22:07:47.762Z,99.90
2022-08-23T22:10:18.182Z,99.90
2022-08-23T22:12:46.013Z,99.90
2022-08-23T22:15:15.041Z,99.90
2022-08-23T22:17:42.846Z,99.90
2022-08-23T22:20:13.850Z,99.90
2022-08-23T22:22:45.254Z,99.90
2022-08-23T22:28:27.459Z,99.90
2022-08-23T22:31:02.565Z,99.90
2022-08-23T22:33:31.473Z,99.90
2022-08-23T22:36:09.754Z,99.90
2022-08-23T22:38:38.892Z,99.90
2022-08-23T22:41:07.796Z,99.90
2022-08-23T22:43:36.425Z,99.90
2022-08-23T22:46:05.675Z,99.90
2022-08-23T22:48:35.662Z,99.90
2022-08-23T22:51:10.578Z,99.90
2022-08-23T22:53:41.345Z,99.90
2022-08-23T22:56:12.461Z,99.90
2022-08-23T22:58:40.544Z,99.90
2022-08-23T23:01:12.972Z,99.90
2022-08-23T23:03:42.786Z,99.90
2022-08-23T23:06:10.792Z,99.90
2022-08-23T23:08:38.547Z,99.90
2022-08-23T23:11:10.532Z,99.90
2022-08-23T23:13:39.625Z,99.90
2022-08-23T23:16:10.510Z,99.90
2022-08-23T23:18:40.312Z,99.90
2022-08-23T23:21:10.246Z,99.90
2022-08-23T23:23:38.541Z,99.90
2022-08-23T23:26:08.240Z,99.90
2022-08-23T23:28:35.935Z,99.90
2022-08-23T23:31:06.937Z,99.90
2022-08-23T23:33:36.665Z,99.90
2022-08-23T23:36:04.362Z,99.90
2022-08-23T23:38:32.039Z,99.90
2022-08-23T23:40:59.766Z,99.90
2022-08-23T23:43:27.437Z,99.90
2022-08-23T23:45:55.181Z,99.90
2022-08-23T23:48:23.531Z,99.90
2022-08-23T23:50:51.461Z,99.90
2022-08-23T23:53:22.200Z,99.90
2022-08-23T23:56:02.041Z,99.90
2022-08-23T23:58:30.076Z,99.90
